Andrews, North Carolina
Current Conditions -  °F | °C
As of 10:55 PM on Saturday 20 Dec 2014 (Local Time) from KRHP Reporting Station
Haze Haze  
Wind Chill:   Ceiling: 400
Heat Index:   Visibility: 4mi
Dew Point:   Wind: 5mph
Humidity: 99%   Direction: 250°WSW
Pressure: 30.2"   Gusts: NA
Location:  35.2°N, 83.82°W
Report Text: KRHP 210355Z AUTO 25004KT 4SM BR OVC004 06/06 A3020 RMK AO2 T00580057
Loading
Personal Weather Stations






























Interactive Weather Map New forecast layout! Learn more

10-Day Weather Forecast

Advertisements
Track Severe Weather on mobile